Eizo Maru — JD2944 — position and weather

sailwx.info

Track history (hours):
 
Tides and Currents Weather Stations Pressure Air Temp Water Temp Dewpoint Dewpoint Depression Visibility Wind Speed Wind Dir Waves Ship Positions

Eizo Maru

Last reported at 2016-Feb-02 08:17 UTC. Time now 2016-Feb-06 15:47 UTC.
Position N 35°13' E 139°46'.

Length 80 m; draft 5.3 m.

Type: Tanker. MMSI: 431000976.

Date/timePositionNaut miles runAvg speedWind from/ knotsBaromVisibWave heightAir tempDewpointWater temp
2016-Feb-02 08:17N 35°13' E 139°46'811.5
2016-Feb-02 07:33N 35°21' E 139°42'1010.3
2016-Feb-02 06:34N 35°31' E 139°46'0 0.0
2016-Feb-02 04:20N 35°31' E 139°46'0 0.0
2016-Feb-02 03:32N 35°31' E 139°46'2 2.4
2016-Feb-02 02:34N 35°29' E 139°48'1211.8
2016-Feb-02 01:33N 35°17' E 139°45'1412.2
2016-Feb-02 00:24N 35°03' E 139°44'1211.6
2016-Feb-01 23:21N 34°52' E 139°52'3913.3
2016-Feb-01 20:26N 35°15' E 140°30'1313.8
2016-Feb-01 19:29N 35°25' E 140°40'17 0.4
2016-Jan-30 18:33N 35°39' E 140°54'1511.9
2016-Jan-30 17:15N 35°26' E 140°42'1311.8
2016-Jan-30 16:07N 35°16' E 140°32'2211.3
2016-Jan-30 14:12N 35°01' E 140°12'  
2016-Jan-26 08:33N 35°18' E 139°44'1110.6
2016-Jan-26 07:33N 35°28' E 139°48'1211.6
2016-Jan-26 06:33N 35°31' E 140°02'1 0.5
2016-Jan-26 05:33N 35°31' E 140°03'0 0.0
2016-Jan-26 04:24N 35°31' E 140°03'0 0.0
2016-Jan-26 03:33N 35°31' E 140°03'0 0.0
2016-Jan-26 02:33N 35°31' E 140°03'0 0.0
2016-Jan-26 01:34N 35°31' E 140°03'3 2.9
2016-Jan-26 00:29N 35°31' E 139°59'0 0.0
2016-Jan-25 23:23N 35°31' E 139°59'0 0.0
2016-Jan-25 22:29N 35°31' E 139°59'0 0.0
2016-Jan-25 21:29N 35°31' E 139°59'0 0.0
2016-Jan-25 20:29N 35°31' E 139°59'0 0.0
2016-Jan-25 19:29N 35°31' E 139°59'2 1.7
2016-Jan-25 18:32N 35°30' E 139°57'1313.1
2016-Jan-25 17:33N 35°22' E 139°45'1212.2
2016-Jan-25 16:33N 35°10' E 139°46'1413.7
2016-Jan-25 15:34N 34°56' E 139°44'  
Track history (hours):
 
Tides and Currents Weather Stations Pressure Air Temp Water Temp Dewpoint Dewpoint Depression Visibility Wind Speed Wind Dir Waves Ship Positions

Eizo Maru

Last reported at 2016-Feb-02 08:17 UTC. Time now 2016-Feb-06 15:47 UTC.
Position N 35°13' E 139°46'.

Length 80 m; draft 5.3 m.

Type: Tanker. MMSI: 431000976.

Date/timePositionNaut miles runAvg speedWind from/ knotsBaromVisibWave heightAir tempDewpointWater temp
2016-Feb-02 08:17N 35°13' E 139°46'811.5
2016-Feb-02 07:33N 35°21' E 139°42'1010.3
2016-Feb-02 06:34N 35°31' E 139°46'0 0.0
2016-Feb-02 04:20N 35°31' E 139°46'0 0.0
2016-Feb-02 03:32N 35°31' E 139°46'2 2.4
2016-Feb-02 02:34N 35°29' E 139°48'1211.8
2016-Feb-02 01:33N 35°17' E 139°45'1412.2
2016-Feb-02 00:24N 35°03' E 139°44'1211.6
2016-Feb-01 23:21N 34°52' E 139°52'3913.3
2016-Feb-01 20:26N 35°15' E 140°30'1313.8
2016-Feb-01 19:29N 35°25' E 140°40'17 0.4
2016-Jan-30 18:33N 35°39' E 140°54'1511.9
2016-Jan-30 17:15N 35°26' E 140°42'1311.8
2016-Jan-30 16:07N 35°16' E 140°32'2211.3
2016-Jan-30 14:12N 35°01' E 140°12'  
2016-Jan-26 08:33N 35°18' E 139°44'1110.6
2016-Jan-26 07:33N 35°28' E 139°48'1211.6
2016-Jan-26 06:33N 35°31' E 140°02'1 0.5
2016-Jan-26 05:33N 35°31' E 140°03'0 0.0
2016-Jan-26 04:24N 35°31' E 140°03'0 0.0
2016-Jan-26 03:33N 35°31' E 140°03'0 0.0
2016-Jan-26 02:33N 35°31' E 140°03'0 0.0
2016-Jan-26 01:34N 35°31' E 140°03'3 2.9
2016-Jan-26 00:29N 35°31' E 139°59'0 0.0
2016-Jan-25 23:23N 35°31' E 139°59'0 0.0
2016-Jan-25 22:29N 35°31' E 139°59'0 0.0
2016-Jan-25 21:29N 35°31' E 139°59'0 0.0
2016-Jan-25 20:29N 35°31' E 139°59'0 0.0
2016-Jan-25 19:29N 35°31' E 139°59'2 1.7
2016-Jan-25 18:32N 35°30' E 139°57'1313.1
2016-Jan-25 17:33N 35°22' E 139°45'1212.2
2016-Jan-25 16:33N 35°10' E 139°46'1413.7
2016-Jan-25 15:34N 34°56' E 139°44'  

Dump ship's entire track history